createdAt,value
2019-03-31T00:01:47.371Z,100150.56
2019-03-31T00:04:15.100Z,100150.49
2019-03-31T00:06:42.678Z,100148.22
2019-03-31T00:09:10.290Z,100140.69
2019-03-31T00:11:37.915Z,100144.52
2019-03-31T00:14:05.586Z,100140.08
2019-03-31T00:16:33.213Z,100143.98
2019-03-31T00:19:00.814Z,100138.66
2019-03-31T00:21:28.431Z,100133.77
2019-03-31T00:23:56.029Z,100132.87
2019-03-31T00:26:23.649Z,100140.34
2019-03-31T00:28:51.258Z,100143.37
2019-03-31T00:31:22.306Z,100133.77
2019-03-31T00:33:51.403Z,100138.48
2019-03-31T00:36:21.566Z,100131.45
2019-03-31T00:38:49.272Z,100134.11
2019-03-31T00:41:20.079Z,100139.42
2019-03-31T00:43:47.704Z,100138.97
2019-03-31T00:46:15.305Z,100136.34
2019-03-31T00:48:45.190Z,100132.01
2019-03-31T00:51:12.789Z,100137.73
2019-03-31T00:53:40.388Z,100136.41
2019-03-31T00:56:08.105Z,100141.22
2019-03-31T00:58:38.475Z,100141.22
2019-03-31T01:01:35.654Z,100140.66
2019-03-31T01:03:54.947Z,100139.50
2019-03-31T01:06:23.005Z,100143.05
2019-03-31T01:08:50.729Z,100139.05
2019-03-31T01:11:23.371Z,100138.19
2019-03-31T01:13:51.077Z,100145.23
2019-03-31T01:16:18.694Z,100143.06
2019-03-31T01:18:46.506Z,100150.55
2019-03-31T01:21:14.250Z,100143.14
2019-03-31T01:23:42.162Z,100142.28
2019-03-31T01:26:10.007Z,100145.34
2019-03-31T01:28:37.639Z,100142.79
2019-03-31T01:31:05.237Z,100148.86
2019-03-31T01:33:33.045Z,100149.84
2019-03-31T01:36:00.668Z,100150.24
2019-03-31T01:38:28.336Z,100151.16
2019-03-31T01:40:55.935Z,100154.64
2019-03-31T01:43:23.536Z,100146.80
2019-03-31T01:45:51.175Z,100147.27
2019-03-31T01:48:18.794Z,100144.63
2019-03-31T01:50:46.389Z,100145.97
2019-03-31T01:53:14.009Z,100146.02
2019-03-31T01:55:41.603Z,100149.58
2019-03-31T01:58:09.250Z,100153.13
2019-03-31T02:00:39.787Z,100152.27
2019-03-31T02:03:07.391Z,100150.97
2019-03-31T02:05:35.055Z,100148.80
2019-03-31T02:08:02.851Z,100149.66
2019-03-31T02:10:30.469Z,100144.39
2019-03-31T02:12:58.136Z,100144.87
2019-03-31T02:15:25.752Z,100148.39
2019-03-31T02:17:53.374Z,100148.01
2019-03-31T02:20:21.006Z,100145.37
2019-03-31T02:22:48.611Z,100147.16
2019-03-31T02:25:16.222Z,100150.70
2019-03-31T02:27:43.836Z,100149.80
2019-03-31T02:30:11.688Z,100147.09
2019-03-31T02:32:41.162Z,100147.61
2019-03-31T02:35:08.870Z,100147.23
2019-03-31T02:37:36.487Z,100148.22
2019-03-31T02:40:05.116Z,100149.61
2019-03-31T02:42:32.925Z,100159.72
2019-03-31T02:45:00.821Z,100158.52
2019-03-31T02:47:28.557Z,100156.82
2019-03-31T02:52:21.509Z,100156.50
2019-03-31T02:54:49.161Z,100164.62
2019-03-31T02:57:20.163Z,100159.50
2019-03-31T02:59:50.589Z,100152.20
2019-03-31T03:02:19.256Z,100165.92
2019-03-31T03:04:48.186Z,100163.83
2019-03-31T03:07:17.360Z,100167.02
2019-03-31T03:09:47.103Z,100169.75
2019-03-31T03:12:17.107Z,100170.69
2019-03-31T03:14:47.123Z,100183.07
2019-03-31T03:17:14.719Z,100186.22
2019-03-31T03:19:42.341Z,100183.75
2019-03-31T03:22:09.951Z,100191.24
2019-03-31T03:24:37.563Z,100193.50
2019-03-31T03:27:05.149Z,100184.83
2019-03-31T03:29:32.833Z,100189.23
2019-03-31T03:32:00.458Z,100187.51
2019-03-31T03:34:28.088Z,100188.83
2019-03-31T03:36:55.989Z,100188.88
2019-03-31T03:39:23.592Z,100190.19
2019-03-31T03:41:51.435Z,100192.38
2019-03-31T03:44:19.121Z,100193.69
2019-03-31T03:46:46.751Z,100193.69
2019-03-31T03:49:14.736Z,100189.75
2019-03-31T03:51:42.392Z,100197.16
2019-03-31T03:54:10.023Z,100198.42
2019-03-31T03:56:37.631Z,100195.80
2019-03-31T03:59:05.250Z,100196.70
2019-03-31T04:01:32.879Z,100194.93
2019-03-31T04:04:00.508Z,100204.59
2019-03-31T04:06:28.120Z,100202.00
2019-03-31T04:08:55.753Z,100207.25
2019-03-31T04:11:28.682Z,100204.23
2019-03-31T04:13:56.596Z,100208.22
2019-03-31T04:16:24.413Z,100211.75
2019-03-31T04:18:52.053Z,100214.83
2019-03-31T04:21:19.669Z,100222.21
2019-03-31T04:23:48.771Z,100226.20
2019-03-31T04:26:16.370Z,100226.20
2019-03-31T04:28:43.971Z,100228.83
2019-03-31T04:31:11.580Z,100229.27
2019-03-31T04:33:50.611Z,100231.89
2019-03-31T04:36:08.705Z,100238.91
2019-03-31T04:38:36.302Z,100244.11
2019-03-31T04:41:03.939Z,100240.64
2019-03-31T04:43:31.546Z,100250.67
2019-03-31T04:45:59.151Z,100254.95
2019-03-31T04:48:26.751Z,100258.45
2019-03-31T04:50:54.384Z,100264.09
2019-03-31T04:53:21.986Z,100268.44
2019-03-31T04:55:49.596Z,100267.14
2019-03-31T04:58:17.198Z,100266.22
2019-03-31T05:00:44.802Z,100272.89
2019-03-31T05:03:12.397Z,100286.47
2019-03-31T05:05:40.007Z,100279.96
2019-03-31T05:08:07.610Z,100290.91
2019-03-31T05:10:35.240Z,100293.45
2019-03-31T05:13:02.832Z,100303.98
2019-03-31T05:15:30.441Z,100307.06
2019-03-31T05:17:58.053Z,100305.40
2019-03-31T05:20:25.656Z,100316.94
2019-03-31T05:22:53.300Z,100330.02
2019-03-31T05:25:20.975Z,100326.48
2019-03-31T05:27:48.575Z,100330.83
2019-03-31T05:30:16.187Z,100339.25
2019-03-31T05:32:43.793Z,100338.44
2019-03-31T05:35:11.398Z,100343.28
2019-03-31T05:37:50.391Z,100353.82
2019-03-31T05:40:08.905Z,100350.79
2019-03-31T05:42:36.529Z,100348.16
2019-03-31T05:45:04.496Z,100366.53
2019-03-31T05:47:32.097Z,100356.84
2019-03-31T05:49:59.704Z,100365.95
2019-03-31T05:52:27.301Z,100373.00
2019-03-31T05:54:54.911Z,100380.34
2019-03-31T05:57:22.535Z,100381.98
2019-03-31T05:59:50.192Z,100392.03
2019-03-31T06:02:17.802Z,100401.53
2019-03-31T06:04:45.406Z,100408.38
2019-03-31T06:07:13.017Z,100409.81
2019-03-31T06:09:40.621Z,100420.73
2019-03-31T06:12:08.240Z,100429.14
2019-03-31T06:14:35.849Z,100429.59
2019-03-31T06:17:03.471Z,100439.27
2019-03-31T06:19:31.065Z,100442.27
2019-03-31T06:21:58.686Z,100445.22
2019-03-31T06:24:26.285Z,100445.09
2019-03-31T06:26:53.958Z,100446.72
2019-03-31T06:29:21.609Z,100459.30
2019-03-31T06:31:49.230Z,100460.98
2019-03-31T06:34:16.842Z,100470.63
2019-03-31T06:36:44.449Z,100474.61
2019-03-31T06:39:12.064Z,100486.84
2019-03-31T06:41:39.730Z,100489.52
2019-03-31T06:44:07.395Z,100508.84
2019-03-31T06:46:35.018Z,100525.88
2019-03-31T06:49:02.638Z,100551.03
2019-03-31T06:51:30.249Z,100544.31
2019-03-31T06:53:57.862Z,100555.03
2019-03-31T06:56:25.463Z,100555.23
2019-03-31T06:58:53.099Z,100556.23
2019-03-31T07:01:20.733Z,100564.67
2019-03-31T07:03:48.356Z,100561.69
2019-03-31T07:06:15.963Z,100565.23
2019-03-31T07:08:43.666Z,100573.16
2019-03-31T07:11:36.911Z,100585.40
2019-03-31T07:14:10.353Z,100580.58
2019-03-31T07:16:43.621Z,100595.39
2019-03-31T07:19:18.710Z,100603.65
2019-03-31T07:21:53.158Z,100612.27
2019-03-31T07:24:20.766Z,100616.92
2019-03-31T07:26:48.410Z,100623.36
2019-03-31T07:29:16.566Z,100631.11
2019-03-31T07:31:44.289Z,100637.67
2019-03-31T07:34:11.940Z,100642.86
2019-03-31T07:36:39.582Z,100641.89
2019-03-31T07:39:07.337Z,100657.58
2019-03-31T07:41:36.212Z,100652.68
2019-03-31T07:44:04.035Z,100656.06
2019-03-31T07:46:31.748Z,100663.05
2019-03-31T07:48:59.808Z,100666.95
2019-03-31T07:51:27.429Z,100676.56
2019-03-31T07:53:55.163Z,100676.08
2019-03-31T07:56:22.794Z,100685.68
2019-03-31T07:58:50.585Z,100693.15
2019-03-31T08:01:18.205Z,100704.10
2019-03-31T08:03:45.839Z,100720.66
2019-03-31T08:06:14.603Z,100722.10
2019-03-31T08:08:42.935Z,100731.65
2019-03-31T08:11:10.641Z,100737.19
2019-03-31T08:13:38.233Z,100733.55
2019-03-31T08:16:05.858Z,100739.67
2019-03-31T08:18:33.504Z,100747.55
2019-03-31T08:21:01.298Z,100754.64
2019-03-31T08:23:30.183Z,100759.55
2019-03-31T08:25:57.866Z,100767.84
2019-03-31T08:28:25.489Z,100773.09
2019-03-31T08:30:53.626Z,100779.16
2019-03-31T08:33:21.275Z,100797.96
2019-03-31T08:35:48.970Z,100800.55
2019-03-31T08:38:16.745Z,100804.05
2019-03-31T08:40:44.362Z,100813.63
2019-03-31T08:43:11.993Z,100820.65
2019-03-31T08:45:39.625Z,100819.14
2019-03-31T08:48:07.263Z,100820.63
2019-03-31T08:50:35.108Z,100824.24
2019-03-31T08:53:02.842Z,100833.64
2019-03-31T08:55:32.268Z,100850.47
2019-03-31T08:58:00.080Z,100846.93
2019-03-31T09:00:35.757Z,100862.52
2019-03-31T09:03:03.601Z,100862.70
2019-03-31T09:05:33.162Z,100863.25
2019-03-31T09:08:02.664Z,100881.62
2019-03-31T09:10:30.406Z,100889.53
2019-03-31T09:12:58.020Z,100892.94
2019-03-31T09:15:26.897Z,100894.66
2019-03-31T09:17:54.632Z,100903.73
2019-03-31T09:20:22.219Z,100911.42
2019-03-31T09:22:49.886Z,100930.90
2019-03-31T09:25:17.497Z,100923.45
2019-03-31T09:27:45.114Z,100940.11
2019-03-31T09:30:14.756Z,100936.61
2019-03-31T09:32:42.379Z,100939.48
2019-03-31T09:35:10.518Z,100947.31
2019-03-31T09:38:31.892Z,100952.27
2019-03-31T09:41:21.174Z,100956.78
2019-03-31T09:43:48.787Z,100956.31
2019-03-31T09:46:17.537Z,100962.89
2019-03-31T09:48:45.258Z,100968.97
2019-03-31T09:51:12.927Z,100968.35
2019-03-31T09:53:42.404Z,100978.42
2019-03-31T09:56:10.159Z,100985.14
2019-03-31T09:58:37.938Z,100983.56
2019-03-31T10:01:08.018Z,100986.89
2019-03-31T10:03:35.130Z,101000.05
2019-03-31T10:06:10.639Z,101018.67
2019-03-31T10:08:32.923Z,101015.36
2019-03-31T10:11:02.876Z,101020.41
2019-03-31T10:13:30.186Z,101032.15
2019-03-31T10:16:00.221Z,101048.91
2019-03-31T10:18:27.890Z,101041.20
2019-03-31T10:20:55.509Z,101042.75
2019-03-31T10:23:23.166Z,101036.10
2019-03-31T10:25:50.939Z,101041.02
2019-03-31T10:28:18.646Z,101035.04
2019-03-31T10:30:46.266Z,101042.50
2019-03-31T10:33:13.911Z,101041.38
2019-03-31T10:35:43.350Z,101046.11
2019-03-31T10:38:10.999Z,101057.69
2019-03-31T10:40:38.652Z,101067.00
2019-03-31T10:43:06.268Z,101062.30
2019-03-31T10:45:33.887Z,101072.62
2019-03-31T10:48:01.500Z,101070.36
2019-03-31T10:50:29.261Z,101074.44
2019-03-31T10:52:56.931Z,101076.94
2019-03-31T10:55:24.728Z,101083.05
2019-03-31T10:57:52.422Z,101084.54
2019-03-31T11:00:31.547Z,101098.45
2019-03-31T11:02:59.310Z,101095.03
2019-03-31T11:05:26.971Z,101102.45
2019-03-31T11:07:54.627Z,101089.03
2019-03-31T11:10:22.290Z,101098.27
2019-03-31T11:12:50.920Z,101103.62
2019-03-31T11:15:18.854Z,101098.27
2019-03-31T11:17:46.670Z,101103.40
2019-03-31T11:20:14.366Z,101111.13
2019-03-31T11:22:50.901Z,101117.59
2019-03-31T11:25:22.104Z,101115.52
2019-03-31T11:27:48.111Z,101116.88
2019-03-31T11:30:16.588Z,101124.61
2019-03-31T11:32:44.224Z,101120.93
2019-03-31T11:35:13.937Z,101124.73
2019-03-31T11:37:41.811Z,101126.16
2019-03-31T11:40:09.963Z,101120.88
2019-03-31T11:42:37.575Z,101132.77
2019-03-31T11:45:06.016Z,101144.59
2019-03-31T11:47:33.749Z,101142.33
2019-03-31T11:50:05.611Z,101141.86
2019-03-31T11:52:33.270Z,101143.34
2019-03-31T11:55:00.936Z,101153.39
2019-03-31T11:57:28.567Z,101152.88
2019-03-31T11:59:56.228Z,101161.16
2019-03-31T12:02:27.194Z,101168.38
2019-03-31T12:04:54.523Z,101170.05
2019-03-31T12:07:28.390Z,101169.48
2019-03-31T12:09:51.697Z,101164.90
2019-03-31T12:12:19.368Z,101177.81
2019-03-31T12:14:59.779Z,101175.22
2019-03-31T12:17:16.563Z,101182.27
2019-03-31T12:19:44.412Z,101196.34
2019-03-31T12:22:12.184Z,101195.20
2019-03-31T12:24:39.912Z,101193.56
2019-03-31T12:27:07.553Z,101195.69
2019-03-31T12:29:35.167Z,101183.50
2019-03-31T12:32:02.798Z,101192.78
2019-03-31T12:34:30.436Z,101193.97
2019-03-31T12:36:58.106Z,101193.61
2019-03-31T12:39:25.867Z,101175.77
2019-03-31T12:41:53.708Z,101207.23
2019-03-31T12:44:21.348Z,101211.03
2019-03-31T12:46:56.046Z,101219.86
2019-03-31T12:49:22.800Z,101203.62
2019-03-31T12:51:50.470Z,101223.73
2019-03-31T12:54:18.112Z,101227.77
2019-03-31T12:56:45.776Z,101234.00
2019-03-31T12:59:17.202Z,101241.54
2019-03-31T13:01:44.931Z,101242.52
2019-03-31T13:04:12.615Z,101240.67
2019-03-31T13:06:40.273Z,101247.06
2019-03-31T13:09:08.269Z,101238.53
2019-03-31T13:11:35.885Z,101246.27
2019-03-31T13:14:03.522Z,101258.19
2019-03-31T13:16:31.135Z,101252.95
2019-03-31T13:18:58.748Z,101257.33
2019-03-31T13:21:26.379Z,101254.64
2019-03-31T13:23:54.053Z,101246.59
2019-03-31T13:26:23.582Z,101263.38
2019-03-31T13:28:53.103Z,101269.07
2019-03-31T13:31:20.875Z,101266.20
2019-03-31T13:33:48.705Z,101266.48
2019-03-31T13:36:16.378Z,101281.86
2019-03-31T13:39:23.857Z,101279.22
2019-03-31T13:41:51.503Z,101284.75
2019-03-31T13:44:19.234Z,101284.09
2019-03-31T13:46:46.844Z,101285.78
2019-03-31T13:49:14.511Z,101291.30
2019-03-31T13:51:42.124Z,101290.25
2019-03-31T13:54:09.758Z,101293.22
2019-03-31T13:56:37.593Z,101301.73
2019-03-31T13:59:05.209Z,101300.05
2019-03-31T14:01:32.844Z,101306.14
2019-03-31T14:04:03.306Z,101301.27
2019-03-31T14:06:31.642Z,101294.63
2019-03-31T14:08:59.466Z,101295.80
2019-03-31T14:11:27.143Z,101306.55
2019-03-31T14:13:56.118Z,101307.79
2019-03-31T14:16:24.031Z,101306.88
2019-03-31T14:18:51.706Z,101310.38
2019-03-31T14:21:19.461Z,101309.88
2019-03-31T14:23:47.086Z,101306.78
2019-03-31T14:26:14.703Z,101322.17
2019-03-31T14:28:42.345Z,101335.20
2019-03-31T14:31:10.001Z,101323.62
2019-03-31T14:33:37.632Z,101330.73
2019-03-31T14:36:05.342Z,101335.52
2019-03-31T14:38:40.103Z,101328.78
2019-03-31T14:41:02.503Z,101338.16
2019-03-31T14:43:30.125Z,101341.83
2019-03-31T14:45:57.733Z,101353.55
2019-03-31T14:48:25.356Z,101346.70
2019-03-31T14:50:52.963Z,101356.07
2019-03-31T14:53:20.603Z,101353.38
2019-03-31T14:55:48.267Z,101349.67
2019-03-31T14:58:15.902Z,101357.61
2019-03-31T15:00:43.706Z,101359.02
2019-03-31T15:03:11.383Z,101371.77
2019-03-31T15:05:56.852Z,101365.47
2019-03-31T15:08:24.497Z,101361.22
2019-03-31T15:10:52.280Z,101374.84
2019-03-31T15:13:20.146Z,101381.15
2019-03-31T15:15:47.884Z,101380.48
2019-03-31T15:18:17.324Z,101383.64
2019-03-31T15:20:46.457Z,101411.08
2019-03-31T15:23:14.391Z,101388.30
2019-03-31T15:25:43.308Z,101395.06
2019-03-31T15:28:11.026Z,101403.94
2019-03-31T15:30:38.914Z,101405.35
2019-03-31T15:33:06.522Z,101410.23
2019-03-31T15:35:37.563Z,101423.45
2019-03-31T15:38:03.795Z,101423.03
2019-03-31T15:40:31.432Z,101419.58
2019-03-31T15:42:59.038Z,101420.92
2019-03-31T15:45:26.685Z,101416.49
2019-03-31T15:47:54.322Z,101417.30
2019-03-31T15:50:21.951Z,101421.23
2019-03-31T15:52:49.572Z,101419.49
2019-03-31T15:55:17.220Z,101418.62
2019-03-31T15:57:44.839Z,101418.09
2019-03-31T16:00:15.019Z,101427.26
2019-03-31T16:02:42.605Z,101423.72
2019-03-31T16:05:12.682Z,101436.91
2019-03-31T16:07:39.939Z,101425.91
2019-03-31T16:10:07.455Z,101433.80
2019-03-31T16:12:34.515Z,101435.11
2019-03-31T16:15:01.704Z,101439.94
2019-03-31T16:17:28.887Z,101446.11
2019-03-31T16:19:56.015Z,101455.70
2019-03-31T16:22:23.080Z,101457.08
2019-03-31T16:24:52.402Z,101459.39
2019-03-31T16:27:19.468Z,101461.63
2019-03-31T16:29:46.544Z,101464.69
2019-03-31T16:32:13.623Z,101467.35
2019-03-31T16:34:40.693Z,101470.39
2019-03-31T16:37:07.775Z,101473.02
2019-03-31T16:39:37.825Z,101477.91
2019-03-31T16:42:04.018Z,101485.42
2019-03-31T16:44:31.097Z,101483.18
2019-03-31T16:46:58.201Z,101493.33
2019-03-31T16:49:25.274Z,101500.44
2019-03-31T16:51:52.358Z,101501.30
2019-03-31T16:54:19.426Z,101496.91
2019-03-31T16:56:46.492Z,101504.44
2019-03-31T16:59:13.594Z,101509.78
2019-03-31T17:01:40.936Z,101514.18
2019-03-31T17:04:08.176Z,101521.73
2019-03-31T17:06:35.284Z,101513.44
2019-03-31T17:09:06.128Z,101531.05
2019-03-31T17:11:35.590Z,101530.19
2019-03-31T17:14:03.389Z,101535.96
2019-03-31T17:16:30.476Z,101536.01
2019-03-31T17:18:57.572Z,101544.81
2019-03-31T17:21:24.654Z,101546.13
2019-03-31T17:23:51.774Z,101551.02
2019-03-31T17:26:18.815Z,101561.14
2019-03-31T17:28:45.894Z,101558.09
2019-03-31T17:31:12.999Z,101564.67
2019-03-31T17:33:40.064Z,101569.95
2019-03-31T17:36:07.135Z,101579.60
2019-03-31T17:38:34.256Z,101576.13
2019-03-31T17:41:01.325Z,101590.17
2019-03-31T17:43:28.414Z,101589.28
2019-03-31T17:45:55.523Z,101595.46
2019-03-31T17:48:22.715Z,101595.45
2019-03-31T17:50:49.837Z,101597.23
2019-03-31T17:53:18.743Z,101600.73
2019-03-31T17:55:45.832Z,101600.73
2019-03-31T17:58:19.065Z,101603.81
2019-03-31T18:00:46.164Z,101616.98
2019-03-31T18:03:15.609Z,101620.48
2019-03-31T18:05:43.473Z,101631.44
2019-03-31T18:08:11.742Z,101636.27
2019-03-31T18:10:38.968Z,101638.05
2019-03-31T18:13:06.064Z,101644.16
2019-03-31T18:15:33.279Z,101646.80
2019-03-31T18:18:05.140Z,101652.06
2019-03-31T18:20:39.906Z,101657.75
2019-03-31T18:23:06.940Z,101663.87
2019-03-31T18:25:34.034Z,101673.05
2019-03-31T18:28:09.784Z,101673.06
2019-03-31T18:30:36.881Z,101673.07
2019-03-31T18:33:06.003Z,101684.45
2019-03-31T18:35:33.063Z,101690.58
2019-03-31T18:38:04.389Z,101688.36
2019-03-31T18:40:35.118Z,101697.13
2019-03-31T18:43:01.717Z,101704.10
2019-03-31T18:45:28.904Z,101700.59
2019-03-31T18:47:56.017Z,101712.84
2019-03-31T18:50:23.300Z,101723.77
2019-03-31T18:52:50.314Z,101725.97
2019-03-31T18:55:46.333Z,101733.38
2019-03-31T18:58:24.650Z,101730.30
2019-03-31T19:01:23.326Z,101732.89
2019-03-31T19:04:37.778Z,101736.81
2019-03-31T19:07:39.218Z,101741.17
2019-03-31T19:10:49.419Z,101749.03
2019-03-31T19:13:27.752Z,101748.99
2019-03-31T19:16:17.427Z,101757.27
2019-03-31T19:19:05.657Z,101756.38
2019-03-31T19:21:51.891Z,101766.00
2019-03-31T19:24:47.592Z,101765.55
2019-03-31T19:27:49.726Z,101774.25
2019-03-31T19:30:45.352Z,101774.63
2019-03-31T19:33:34.775Z,101768.44
2019-03-31T19:36:22.133Z,101786.78
2019-03-31T19:39:07.803Z,101789.75
2019-03-31T19:42:09.677Z,101800.66
2019-03-31T19:44:53.151Z,101802.34
2019-03-31T19:47:29.535Z,101803.63
2019-03-31T19:50:12.039Z,101810.59
2019-03-31T19:52:49.038Z,101811.88
2019-03-31T19:56:07.020Z,101807.91
2019-03-31T19:58:54.499Z,101812.70
2019-03-31T20:01:38.707Z,101815.27
2019-03-31T20:04:24.103Z,101820.95
2019-03-31T20:06:59.455Z,101826.16
2019-03-31T20:09:33.573Z,101827.43
2019-03-31T20:12:09.770Z,101827.39
2019-03-31T20:14:55.261Z,101835.22
2019-03-31T20:17:44.615Z,101842.61
2019-03-31T20:20:24.712Z,101839.99
2019-03-31T20:23:14.337Z,101840.86
2019-03-31T20:25:48.535Z,101839.95
2019-03-31T20:28:25.305Z,101839.92
2019-03-31T20:31:04.733Z,101843.41
2019-03-31T20:33:57.140Z,101849.92
2019-03-31T20:36:46.568Z,101846.39
2019-03-31T20:39:33.266Z,101852.91
2019-03-31T20:42:18.257Z,101853.30
2019-03-31T20:44:45.341Z,101857.15
2019-03-31T20:47:19.899Z,101865.92
2019-03-31T20:49:46.999Z,101868.45
2019-03-31T20:52:14.033Z,101873.70
2019-03-31T20:54:41.101Z,101871.95
2019-03-31T20:57:08.164Z,101871.91
2019-03-31T20:59:35.316Z,101880.16
2019-03-31T21:02:02.379Z,101882.30
2019-03-31T21:04:29.483Z,101887.93
2019-03-31T21:06:56.584Z,101889.19
2019-03-31T21:09:23.655Z,101901.85
2019-03-31T21:11:50.728Z,101903.11
2019-03-31T21:14:17.811Z,101910.92
2019-03-31T21:16:44.997Z,101910.44
2019-03-31T21:19:12.104Z,101909.52
2019-03-31T21:21:39.163Z,101915.57
2019-03-31T21:24:06.218Z,101920.72
2019-03-31T21:26:33.292Z,101925.02
2019-03-31T21:29:00.359Z,101924.10
2019-03-31T21:31:27.475Z,101931.50
2019-03-31T21:33:54.538Z,101934.95
2019-03-31T21:36:21.671Z,101942.80
2019-03-31T21:38:48.772Z,101941.00
2019-03-31T21:41:15.815Z,101943.57
2019-03-31T21:43:42.880Z,101945.68
2019-03-31T21:46:09.974Z,101947.82
2019-03-31T21:48:37.244Z,101951.73
2019-03-31T21:51:04.324Z,101953.87
2019-03-31T21:53:33.296Z,101962.16
2019-03-31T21:56:00.746Z,101960.36
2019-03-31T21:58:27.806Z,101964.70
2019-03-31T22:00:57.609Z,101966.84
2019-03-31T22:03:24.673Z,101974.70
2019-03-31T22:05:51.747Z,101982.97
2019-03-31T22:08:20.631Z,101983.35
2019-03-31T22:10:47.927Z,101982.47
2019-03-31T22:13:14.998Z,101990.26
2019-03-31T22:15:42.091Z,101988.95
2019-03-31T22:18:10.448Z,101989.78
2019-03-31T22:20:37.503Z,101994.19
2019-03-31T22:23:04.587Z,102000.73
2019-03-31T22:25:31.694Z,102006.80
2019-03-31T22:27:58.786Z,102002.85
2019-03-31T22:30:26.086Z,102013.27
2019-03-31T22:32:53.279Z,102009.78
2019-03-31T22:35:21.708Z,102015.88
2019-03-31T22:37:48.843Z,102015.81
2019-03-31T22:40:17.168Z,102019.25
2019-03-31T22:42:44.205Z,102019.19
2019-03-31T22:45:11.416Z,102024.02
2019-03-31T22:47:38.483Z,102031.88
2019-03-31T22:50:05.683Z,102035.81
2019-03-31T22:52:32.763Z,102034.50
2019-03-31T22:54:59.840Z,102035.37
2019-03-31T22:57:26.906Z,102045.35
2019-03-31T22:59:53.987Z,102040.53
2019-03-31T23:02:21.064Z,102043.53
2019-03-31T23:04:48.142Z,102047.89
2019-03-31T23:07:15.259Z,102048.30
2019-03-31T23:09:42.329Z,102048.25
2019-03-31T23:12:09.394Z,102049.12
2019-03-31T23:14:36.471Z,102054.73
2019-03-31T23:17:03.767Z,102056.91
2019-03-31T23:19:31.040Z,102058.20
2019-03-31T23:21:58.108Z,102062.45
2019-03-31T23:24:25.172Z,102062.43
2019-03-31T23:26:54.294Z,102068.91
2019-03-31T23:29:21.378Z,102071.88
2019-03-31T23:31:48.468Z,102075.23
2019-03-31T23:34:15.545Z,102083.44
2019-03-31T23:36:42.606Z,102084.66
2019-03-31T23:39:09.723Z,102092.00
2019-03-31T23:41:36.784Z,102091.98
2019-03-31T23:44:06.641Z,102093.66
2019-03-31T23:46:33.837Z,102103.16
2019-03-31T23:49:00.916Z,102101.34
2019-03-31T23:51:27.978Z,102104.34
2019-03-31T23:53:58.182Z,102110.80
2019-03-31T23:56:25.220Z,102111.08
2019-03-31T23:58:52.285Z,102104.08
